Main page
METAR-TAF:

METAR-TAF

Airports :

Antonio Roldán Betancourt Airport

Apartadó, Colombia

latitude: 07-49N, longitude: 076-42W, elevation: 20 m

Current weather observation

The report was made 1 hour and 3 minutes ago, at 23:00 UTC
Wind 2 kt from variable directions
Temperature 31°C
Humidity 71%
Pressure 1008 hPa
Visibility 10 km or more
Scattered clouds at a height of 2200 ft, Towering cumulus.
showers in vicinity

METAR: SKLC 232300Z VRB02KT 9999 VCSH SCT022TCU 31/25 Q1008 RMK TCU VCSH/W

Time: 19:03 (00:03 UTC)


TAF: missing

Weather observations and forecasts of more than 4000 airports (METAR and TAF reports).

The available stations are represented by yellow and red dots on the map.

Hover mouse over dot to see the name of the station.

Then click to see weather observations and forecasts.

To change the map : click on the green buttons with a black cross to zoom in, on the green button with a dash to zoom out, or on the green arrows for adjacent maps.


METAR-TAF: